Аэропорт: Хабаровск-Новый. Хабаровск

ICAO: UHHH

METAR:
2024-04-22 23:00:00
UHHH 222300Z 06004MPS 040V100 CAVOK 06/01 Q1017 R88/090060 NOSIG RMK QFE757/1009
TAF:
2024-04-22 21:08:00
TAF AMD UHHH 222108Z 2221/2403 04003MPS CAVOK 
  BECMG 2300/2302 18005MPS 
  TEMPO 2303/2403 21003G08MPS